Time;durP1;ratioP1;P1;durP2;ratioP2;P2;SDS_P1;SDS_P2;PMS_P1;PMS_P2;Temp;Humidity;BMP_temperature;BMP_pressure;BME280_temperature;BME280_humidity;BME280_pressure;Samples;Min_cycle;Max_cycle;Signal;HPM_P1;HPM_P2
2023/07/27 00:01:32;;;;;;;0.90;0.30;;;;;;;14.10;64.71;100324.00;5006477;28;20053;-73
2023/07/27 00:03:59;;;;;;;1.08;0.40;;;;;;;14.09;64.72;100317.06;5006429;28;20048;-73
2023/07/27 00:06:25;;;;;;;2.05;0.38;;;;;;;14.08;64.57;100315.34;5009451;28;20427;-73
2023/07/27 00:08:52;;;;;;;5.50;1.40;;;;;;;14.08;65.11;100323.22;5007991;28;20431;-73
2023/07/27 00:11:19;;;;;;;2.45;0.40;;;;;;;14.07;64.97;100319.75;5009450;28;20056;-73
2023/07/27 00:13:46;;;;;;;3.03;0.50;;;;;;;14.07;65.01;100316.25;5009086;28;20077;-73
2023/07/27 00:16:13;;;;;;;1.67;0.70;;;;;;;14.06;65.21;100317.16;5009079;28;20538;-73
2023/07/27 00:18:41;;;;;;;1.55;0.32;;;;;;;14.06;65.05;100319.78;5008903;28;20125;-73
2023/07/27 00:21:08;;;;;;;2.47;0.30;;;;;;;14.04;65.08;100304.09;5009181;28;20050;-74
2023/07/27 00:23:35;;;;;;;0.82;0.25;;;;;;;14.06;65.17;100304.03;5008749;28;20060;-73
2023/07/27 00:26:02;;;;;;;1.60;0.30;;;;;;;14.05;65.05;100297.06;5008750;28;20042;-74
2023/07/27 00:28:29;;;;;;;2.75;0.40;;;;;;;14.06;64.96;100306.66;5006883;28;20050;-74
2023/07/27 00:30:56;;;;;;;2.85;0.22;;;;;;;14.05;65.06;100308.44;5008905;28;20049;-73
2023/07/27 00:33:22;;;;;;;0.40;0.30;;;;;;;14.03;65.12;100304.16;5008951;28;20050;-74
2023/07/27 00:35:57;;;;;;;2.83;0.70;;;;;;;14.06;65.19;100309.28;5008672;28;20048;-73
2023/07/27 00:38:24;;;;;;;2.83;0.30;;;;;;;14.04;65.18;100309.34;5008709;28;20060;-73
2023/07/27 00:40:51;;;;;;;1.60;0.40;;;;;;;14.04;65.22;100317.22;5008734;28;20057;-73
2023/07/27 00:43:18;;;;;;;6.32;0.60;;;;;;;13.97;65.21;100301.78;5008298;28;20096;-73
2023/07/27 00:45:47;;;;;;;3.42;0.30;;;;;;;14.05;65.55;100318.94;5008599;28;20060;-73
2023/07/27 00:48:14;;;;;;;1.27;0.30;;;;;;;14.05;65.40;100318.94;5008583;28;20050;-73
2023/07/27 00:50:42;;;;;;;3.70;0.38;;;;;;;14.05;65.44;100315.47;5007459;28;20056;-74
2023/07/27 00:53:10;;;;;;;0.43;0.28;;;;;;;14.00;65.56;100309.53;5008599;28;20072;-73
2023/07/27 00:55:37;;;;;;;1.58;0.30;;;;;;;14.06;65.62;100317.16;5007859;28;20768;-73
2023/07/27 00:58:04;;;;;;;2.85;0.30;;;;;;;13.98;65.71;100306.13;5007970;28;20046;-73
2023/07/27 01:00:32;;;;;;;1.38;0.30;;;;;;;14.06;65.88;100320.66;5008477;28;20072;-73
2023/07/27 01:03:00;;;;;;;4.85;0.30;;;;;;;14.07;65.92;100321.50;5008087;28;20133;-73
2023/07/27 01:05:27;;;;;;;1.70;0.20;;;;;;;14.08;65.87;100323.22;5006575;28;20120;-73
2023/07/27 01:07:54;;;;;;;0.70;0.20;;;;;;;14.07;65.70;100326.75;5006747;28;20534;-74
2023/07/27 01:10:41;;;;;;;1.48;0.95;;;;;;;14.08;65.74;100329.31;5008186;28;20054;-73
2023/07/27 01:13:19;;;;;;;1.05;0.30;;;;;;;14.10;65.51;100324.88;5006703;28;20049;-73
2023/07/27 01:15:52;;;;;;;1.17;0.20;;;;;;;14.11;65.53;100318.69;5007733;28;20053;-74
2023/07/27 01:18:26;;;;;;;0.93;0.22;;;;;;;14.11;65.32;100313.44;5007230;28;20045;-74
2023/07/27 01:21:01;;;;;;;0.77;0.20;;;;;;;14.14;65.50;100329.09;5007916;28;20597;-73
2023/07/27 01:24:01;;;;;;;0.60;0.20;;;;;;;14.15;65.33;100328.16;5007901;28;20049;-73
2023/07/27 01:26:57;;;;;;;1.33;0.20;;;;;;;14.17;65.34;100328.97;5007601;28;20056;-73
2023/07/27 01:29:48;;;;;;;2.25;0.30;;;;;;;14.16;65.30;100327.22;5007626;28;20104;-73
2023/07/27 01:32:18;;;;;;;1.60;0.22;;;;;;;14.18;65.51;100329.81;5006736;28;20041;-74
2023/07/27 01:34:48;;;;;;;1.40;0.30;;;;;;;14.11;65.48;100313.44;5007651;28;20487;-73
2023/07/27 01:37:17;;;;;;;1.65;0.30;;;;;;;14.20;65.46;100333.22;5008007;28;20048;-74
2023/07/27 01:39:48;;;;;;;4.28;0.28;;;;;;;14.22;65.39;100335.78;5006499;28;20050;-74
2023/07/27 01:42:17;;;;;;;1.50;0.17;;;;;;;14.22;65.47;100335.78;5006726;28;20069;-74
2023/07/27 01:44:44;;;;;;;1.25;0.30;;;;;;;14.22;65.35;100347.16;5007655;28;20050;-74
2023/07/27 01:47:12;;;;;;;2.28;0.20;;;;;;;14.22;65.85;100338.41;5007760;28;20042;-73
2023/07/27 01:49:43;;;;;;;1.67;0.20;;;;;;;14.22;65.81;100336.63;5007473;28;20046;-73
2023/07/27 01:52:12;;;;;;;4.22;0.20;;;;;;;14.22;65.72;100335.78;5007635;28;20052;-73
2023/07/27 01:54:40;;;;;;;2.95;0.40;;;;;;;14.22;65.86;100331.38;5005537;28;20050;-73
2023/07/27 01:57:09;;;;;;;2.63;0.30;;;;;;;14.22;65.87;100330.53;5007445;28;20053;-73
2023/07/27 01:59:38;;;;;;;2.15;0.20;;;;;;;14.22;65.61;100328.75;5007458;28;20046;-73
2023/07/27 02:02:06;;;;;;;1.55;0.20;;;;;;;14.23;65.89;100326.97;5007399;28;20139;-74
2023/07/27 02:04:33;;;;;;;1.15;0.20;;;;;;;14.22;65.74;100336.63;5007498;28;20041;-73
2023/07/27 02:07:01;;;;;;;1.13;0.20;;;;;;;14.21;65.69;100328.84;5007451;28;20148;-73
2023/07/27 02:09:28;;;;;;;1.00;0.20;;;;;;;14.21;65.77;100331.47;5009568;28;20157;-73
2023/07/27 02:11:59;;;;;;;1.88;0.20;;;;;;;14.18;65.69;100325.41;5011466;28;20056;-73
2023/07/27 02:14:32;;;;;;;0.55;0.20;;;;;;;14.18;65.60;100324.56;5011093;28;20054;-73
2023/07/27 02:17:02;;;;;;;0.22;0.20;;;;;;;14.18;65.63;100335.91;5009383;28;20065;-73
2023/07/27 02:19:32;;;;;;;1.20;0.20;;;;;;;14.12;65.55;100328.28;5011447;28;20080;-73
2023/07/27 02:22:03;;;;;;;2.45;0.22;;;;;;;14.15;65.55;100332.56;5011232;28;20057;-73
2023/07/27 02:24:31;;;;;;;2.80;0.20;;;;;;;14.14;65.54;100329.09;5010936;28;20048;-73
2023/07/27 02:26:58;;;;;;;0.93;0.20;;;;;;;14.15;65.38;100335.19;5011015;28;20054;-73
2023/07/27 02:29:25;;;;;;;0.45;0.20;;;;;;;14.14;65.40;100323.84;5011245;28;20064;-73
2023/07/27 02:31:52;;;;;;;2.15;0.20;;;;;;;14.14;65.32;100325.59;5009053;28;20049;-73
2023/07/27 02:34:20;;;;;;;0.47;0.10;;;;;;;14.12;65.34;100330.91;5011590;28;20053;-72
2023/07/27 02:36:46;;;;;;;4.07;0.40;;;;;;;14.12;65.46;100328.28;5010618;28;20046;-72
2023/07/27 02:39:15;;;;;;;0.35;0.10;;;;;;;14.12;65.52;100323.03;5011093;28;20423;-72
2023/07/27 02:41:42;;;;;;;1.33;0.20;;;;;;;14.10;65.45;100332.75;5010789;28;20472;-72
2023/07/27 02:44:09;;;;;;;1.48;0.20;;;;;;;14.07;65.48;100332.03;5010660;28;20050;-72
2023/07/27 02:46:35;;;;;;;1.20;0.20;;;;;;;14.07;65.50;100327.63;5010807;28;20052;-72
2023/07/27 02:49:02;;;;;;;1.50;0.20;;;;;;;14.07;65.48;100332.03;5012408;28;20052;-78
2023/07/27 02:51:29;;;;;;;1.45;0.20;;;;;;;14.05;65.58;100326.81;5013479;28;20128;-78
2023/07/27 02:53:56;;;;;;;0.68;0.20;;;;;;;14.04;65.66;100338.25;5013590;28;20056;-78
2023/07/27 02:56:25;;;;;;;0.40;0.28;;;;;;;14.03;65.46;100338.28;5013369;28;20140;-78
2023/07/27 02:58:51;;;;;;;1.27;0.20;;;;;;;14.01;65.57;100340.16;5012120;28;20042;-78
2023/07/27 03:01:18;;;;;;;2.55;0.20;;;;;;;13.98;65.54;100343.75;5013055;28;20498;-78
2023/07/27 03:03:45;;;;;;;5.60;0.30;;;;;;;13.98;65.62;100343.75;5013253;28;20052;-78
2023/07/27 03:06:12;;;;;;;0.55;0.20;;;;;;;13.97;65.54;100349.88;5009284;28;20351;-79
2023/07/27 03:08:39;;;;;;;4.03;0.30;;;;;;;13.94;65.63;100342.13;5009498;28;20046;-78
2023/07/27 03:11:06;;;;;;;0.73;0.20;;;;;;;13.79;65.24;100316.50;5013391;28;20521;-78
2023/07/27 03:13:35;;;;;;;1.95;0.15;;;;;;;13.91;65.75;100340.47;5013144;28;20052;-78
2023/07/27 03:16:03;;;;;;;0.50;0.20;;;;;;;13.90;65.84;100345.81;5012964;28;20045;-78
2023/07/27 03:18:31;;;;;;;1.83;0.15;;;;;;;13.87;65.64;100338.91;5013343;28;20049;-78
2023/07/27 03:20:58;;;;;;;1.25;0.20;;;;;;;13.86;65.95;100341.56;5012843;28;20413;-78
2023/07/27 03:23:25;;;;;;;1.50;0.20;;;;;;;13.86;65.92;100349.44;5013027;28;20056;-78
2023/07/27 03:25:52;;;;;;;1.05;0.10;;;;;;;13.84;66.04;100344.28;5012767;28;20048;-78
2023/07/27 03:28:18;;;;;;;0.98;0.20;;;;;;;13.83;66.17;100345.19;5013124;28;20394;-78
2023/07/27 03:30:47;;;;;;;1.77;0.20;;;;;;;13.83;66.08;100346.94;5013115;28;20050;-78
2023/07/27 03:33:14;;;;;;;0.77;0.20;;;;;;;13.81;66.04;100349.66;5012810;28;20046;-78
2023/07/27 03:35:41;;;;;;;3.33;0.10;;;;;;;13.82;66.28;100353.13;5012717;28;20491;-78
2023/07/27 03:38:07;;;;;;;0.20;0.17;;;;;;;13.81;66.17;100351.44;5012657;28;20049;-79
2023/07/27 03:40:34;;;;;;;1.42;0.13;;;;;;;13.72;66.19;100334.25;5012783;28;20050;-78
2023/07/27 03:43:01;;;;;;;3.45;0.17;;;;;;;13.79;66.56;100340.13;5012602;28;20434;-79
2023/07/27 03:45:28;;;;;;;1.45;0.30;;;;;;;13.79;66.46;100355.88;5012559;28;20050;-78
2023/07/27 03:47:57;;;;;;;1.08;0.20;;;;;;;13.78;66.66;100359.44;5009092;28;20046;-78
2023/07/27 03:50:24;;;;;;;1.70;0.10;;;;;;;13.79;66.58;100358.50;5012451;28;20146;-78
2023/07/27 03:52:51;;;;;;;2.33;0.20;;;;;;;13.79;66.76;100369.84;5012791;28;20046;-78
2023/07/27 03:55:19;;;;;;;2.80;0.20;;;;;;;13.75;66.87;100359.53;5009828;28;20065;-78
2023/07/27 03:57:46;;;;;;;3.22;0.10;;;;;;;13.78;67.06;100378.66;5012644;28;20053;-78
2023/07/27 04:00:14;;;;;;;0.90;0.10;;;;;;;13.79;67.08;100366.38;5012133;28;20495;-78
2023/07/27 04:02:41;;;;;;;2.28;0.30;;;;;;;13.75;67.27;100362.16;5012208;28;20060;-78
2023/07/27 04:05:09;;;;;;;1.95;0.30;;;;;;;13.80;67.34;100363.66;5012360;28;20085;-78
2023/07/27 04:07:36;;;;;;;2.25;0.20;;;;;;;13.81;67.58;100359.31;5012225;28;20069;-78
2023/07/27 04:10:03;;;;;;;0.30;0.20;;;;;;;13.82;67.61;100364.47;5012173;28;20049;-78
2023/07/27 04:12:30;;;;;;;1.50;0.20;;;;;;;13.85;67.77;100376.63;5012324;28;20053;-78
2023/07/27 04:14:57;;;;;;;1.67;0.25;;;;;;;13.85;67.71;100366.97;5012070;28;20041;-79
2023/07/27 04:17:24;;;;;;;0.80;0.20;;;;;;;13.88;67.98;100371.25;5012273;28;20049;-78
2023/07/27 04:19:50;;;;;;;1.98;0.13;;;;;;;13.90;68.14;100378.16;5012064;28;20052;-78
2023/07/27 04:22:18;;;;;;;2.28;0.20;;;;;;;13.93;68.01;100377.19;5012086;28;20418;-78
2023/07/27 04:24:45;;;;;;;0.85;0.13;;;;;;;13.95;68.08;100381.47;5012103;28;20487;-78
2023/07/27 04:27:12;;;;;;;0.90;0.20;;;;;;;13.98;68.02;100379.66;5011644;28;20042;-78
2023/07/27 04:29:39;;;;;;;2.30;0.13;;;;;;;14.01;67.98;100380.38;5011517;28;20056;-78
2023/07/27 04:32:07;;;;;;;2.63;0.20;;;;;;;14.04;68.23;100375.00;5011066;28;20060;-79
2023/07/27 04:34:34;;;;;;;0.90;0.20;;;;;;;14.06;68.10;100381.06;5011786;28;20057;-78
2023/07/27 04:37:00;;;;;;;0.93;0.17;;;;;;;14.10;68.08;100369.50;5011700;28;20053;-78
2023/07/27 04:39:29;;;;;;;1.52;0.20;;;;;;;14.13;68.30;100369.38;5011532;28;20733;-78
2023/07/27 04:41:56;;;;;;;5.63;0.43;;;;;;;14.17;68.08;100375.38;5004906;28;20049;-78
2023/07/27 04:44:22;;;;;;;3.97;0.22;;;;;;;14.20;68.11;100372.63;5011441;28;20050;-78
2023/07/27 04:46:49;;;;;;;1.10;0.20;;;;;;;14.24;68.22;100368.13;5011127;28;20042;-78
2023/07/27 04:49:16;;;;;;;2.22;0.17;;;;;;;14.28;68.29;100373.16;5011153;28;20054;-78
2023/07/27 04:51:43;;;;;;;0.60;0.28;;;;;;;14.33;68.29;100371.22;5008434;28;20053;-78
2023/07/27 04:54:10;;;;;;;2.13;0.17;;;;;;;14.37;68.35;100377.19;5011460;28;20676;-78
2023/07/27 04:56:38;;;;;;;0.88;0.13;;;;;;;14.42;68.35;100377.88;5010742;28;20046;-78
2023/07/27 04:59:05;;;;;;;2.33;0.35;;;;;;;14.42;68.41;100369.13;5011067;28;20431;-78
2023/07/27 05:01:32;;;;;;;1.17;0.13;;;;;;;14.51;68.33;100384.53;5010570;28;20442;-78
2023/07/27 05:03:59;;;;;;;6.15;0.20;;;;;;;14.55;68.08;100387.00;5010933;28;20045;-78
2023/07/27 05:06:26;;;;;;;1.52;0.13;;;;;;;14.60;68.23;100385.06;5007887;28;20045;-78
2023/07/27 05:08:53;;;;;;;1.48;0.15;;;;;;;14.67;68.36;100390.06;5010219;28;20049;-78
2023/07/27 05:11:20;;;;;;;1.13;0.10;;;;;;;14.72;68.52;100382.84;5011028;28;20375;-77
2023/07/27 05:13:50;;;;;;;1.27;0.10;;;;;;;14.77;68.89;100386.09;5010172;28;20056;-78
2023/07/27 05:16:17;;;;;;;3.38;0.20;;;;;;;14.82;68.72;100384.13;5010143;28;20100;-78
2023/07/27 05:18:44;;;;;;;0.50;0.20;;;;;;;14.88;68.48;100378.63;5010465;28;20499;-78
2023/07/27 05:21:10;;;;;;;1.85;0.20;;;;;;;14.95;68.38;100385.34;5010671;28;20626;-78
2023/07/27 05:23:37;;;;;;;0.40;0.10;;;;;;;15.03;68.39;100377.13;5010350;28;20081;-78
2023/07/27 05:26:05;;;;;;;0.40;0.10;;;;;;;15.11;68.17;100382.88;5010242;28;20050;-78
2023/07/27 05:28:32;;;;;;;0.90;0.20;;;;;;;15.20;67.81;100392.19;5010483;28;20050;-78
2023/07/27 05:31:00;;;;;;;1.38;0.20;;;;;;;15.29;67.83;100386.50;5009846;28;20415;-77
2023/07/27 05:33:27;;;;;;;1.73;0.10;;;;;;;15.37;67.53;100388.78;5010848;28;20535;-78
2023/07/27 05:35:54;;;;;;;3.25;0.10;;;;;;;15.36;67.19;100374.78;5010239;28;20072;-78
2023/07/27 05:38:22;;;;;;;2.00;0.10;;;;;;;15.55;66.81;100385.34;5010449;28;20042;-78
2023/07/27 05:40:49;;;;;;;0.70;0.17;;;;;;;15.65;66.44;100386.63;5010128;28;20053;-78
2023/07/27 05:43:15;;;;;;;1.35;0.10;;;;;;;15.74;66.47;100386.25;5010092;28;20053;-79
2023/07/27 05:45:42;;;;;;;2.15;0.10;;;;;;;15.77;65.94;100372.09;5010331;28;20409;-77
2023/07/27 05:48:11;;;;;;;0.52;0.20;;;;;;;15.92;65.79;100384.53;5010155;28;20060;-78
2023/07/27 05:50:37;;;;;;;3.42;0.10;;;;;;;16.00;65.56;100385.97;5009199;28;20049;-78
2023/07/27 05:53:05;;;;;;;0.20;0.10;;;;;;;16.07;65.29;100387.38;5010350;28;20046;-77
2023/07/27 05:55:32;;;;;;;1.75;0.10;;;;;;;16.14;64.95;100384.38;5007343;28;20129;-78
2023/07/27 05:57:59;;;;;;;0.43;0.00;;;;;;;16.16;64.84;100377.22;5010106;28;20053;-78
2023/07/27 06:00:26;;;;;;;1.08;0.10;;;;;;;16.31;65.09;100388.84;5009771;28;20132;-77
2023/07/27 06:02:53;;;;;;;1.48;0.10;;;;;;;16.41;63.84;100387.44;5009625;28;20054;-78
2023/07/27 06:05:21;;;;;;;0.93;0.10;;;;;;;16.50;64.26;100387.91;5009655;28;20046;-77
2023/07/27 06:07:48;;;;;;;0.55;0.10;;;;;;;16.50;64.18;100372.09;5009340;28;20049;-78
2023/07/27 06:10:15;;;;;;;0.20;0.10;;;;;;;16.62;64.05;100393.47;5009512;28;20049;-77
2023/07/27 06:12:42;;;;;;;1.60;0.10;;;;;;;16.69;63.70;100391.34;5009583;28;20046;-77
2023/07/27 06:15:09;;;;;;;0.73;0.10;;;;;;;16.77;63.57;100394.50;5009871;28;20495;-78
2023/07/27 06:17:36;;;;;;;0.20;0.10;;;;;;;16.82;63.72;100389.84;5009329;28;20501;-78
2023/07/27 06:20:05;;;;;;;0.85;0.17;;;;;;;16.87;63.47;100389.59;5009737;28;20050;-77
2023/07/27 06:22:33;;;;;;;0.82;0.10;;;;;;;16.92;62.92;100397.28;5010575;28;20050;-78
2023/07/27 06:25:00;;;;;;;3.15;0.10;;;;;;;16.97;63.18;100395.28;5002253;28;20169;-78
2023/07/27 06:27:27;;;;;;;1.30;0.10;;;;;;;17.02;62.97;100401.19;5009948;28;20053;-80
2023/07/27 06:29:54;;;;;;;1.83;0.10;;;;;;;17.04;62.61;100407.22;5010244;28;20042;-78
2023/07/27 06:32:21;;;;;;;1.63;0.13;;;;;;;17.06;62.66;100410.63;5009654;28;20042;-78
2023/07/27 06:34:48;;;;;;;2.13;0.10;;;;;;;17.10;62.51;100412.19;5010013;28;20045;-79
2023/07/27 06:37:15;;;;;;;1.75;0.10;;;;;;;17.13;62.43;100412.00;5009382;28;20050;-79
2023/07/27 06:39:43;;;;;;;2.25;0.10;;;;;;;17.17;62.15;100416.22;5009750;28;20042;-77
2023/07/27 06:42:10;;;;;;;6.00;0.55;;;;;;;17.20;61.59;100397.59;5009037;28;20414;-78
2023/07/27 06:44:37;;;;;;;1.60;0.10;;;;;;;17.25;61.97;100400.84;5009752;28;20250;-78
2023/07/27 06:47:04;;;;;;;1.35;0.10;;;;;;;17.29;61.41;100394.47;5009604;28;20471;-77
2023/07/27 06:49:31;;;;;;;1.85;0.20;;;;;;;17.27;61.54;100383.13;5009635;28;20053;-77
2023/07/27 06:51:58;;;;;;;2.85;0.10;;;;;;;17.39;61.01;100399.25;5008656;28;20045;-77
2023/07/27 06:54:25;;;;;;;0.93;0.05;;;;;;;17.43;60.83;100396.38;5009738;28;20049;-77
2023/07/27 06:56:53;;;;;;;0.80;0.10;;;;;;;17.41;60.91;100389.47;5012668;28;20064;-78
2023/07/27 06:59:20;;;;;;;2.25;0.20;;;;;;;17.57;60.35;100410.66;5012738;28;20050;-77
2023/07/27 07:01:47;;;;;;;3.50;0.20;;;;;;;17.60;60.71;100411.31;5012178;28;20418;-79
2023/07/27 07:04:14;;;;;;;0.30;0.10;;;;;;;17.68;60.52;100411.78;5011286;28;20048;-77
2023/07/27 07:06:41;;;;;;;0.20;0.10;;;;;;;17.76;59.89;100414.84;5008838;28;20449;-77
2023/07/27 07:09:10;;;;;;;1.13;0.10;;;;;;;17.84;59.85;100408.31;5011972;28;20049;-77
2023/07/27 07:11:37;;;;;;;0.90;0.10;;;;;;;17.99;59.98;100415.44;5011484;28;20414;-77
2023/07/27 07:14:05;;;;;;;0.35;0.00;;;;;;;18.06;60.05;100411.50;5011429;28;20050;-76
2023/07/27 07:16:32;;;;;;;0.50;0.20;;;;;;;18.16;59.82;100407.41;5011463;28;20056;-77
2023/07/27 07:18:59;;;;;;;1.13;0.10;;;;;;;18.28;59.91;100410.31;5011501;28;20050;-77
2023/07/27 07:21:26;;;;;;;1.95;0.10;;;;;;;18.40;59.56;100412.25;5010422;28;20061;-76
2023/07/27 07:23:53;;;;;;;1.38;0.10;;;;;;;18.49;59.12;100411.72;5010808;28;20514;-77
2023/07/27 07:26:20;;;;;;;2.83;0.10;;;;;;;18.57;58.50;100404.19;5011387;28;20131;-77
2023/07/27 07:28:47;;;;;;;1.60;0.20;;;;;;;18.63;58.52;100403.84;5011043;28;20046;-77
2023/07/27 07:31:15;;;;;;;2.38;0.40;;;;;;;18.71;58.43;100406.03;5010980;28;20046;-78
2023/07/27 07:33:42;;;;;;;2.65;0.10;;;;;;;18.79;57.86;100408.28;5010563;28;20056;-77
2023/07/27 07:36:09;;;;;;;0.50;0.10;;;;;;;18.87;57.93;100406.91;5011090;28;20050;-77
2023/07/27 07:38:36;;;;;;;0.38;0.10;;;;;;;18.95;57.67;100409.06;5011133;28;20054;-78
2023/07/27 07:41:03;;;;;;;0.22;0.05;;;;;;;19.07;57.98;100402.22;5008452;28;20064;-77
2023/07/27 07:43:32;;;;;;;0.47;0.00;;;;;;;19.20;56.83;100402.31;5010394;28;20060;-76
2023/07/27 07:45:58;;;;;;;1.27;0.00;;;;;;;19.33;56.25;100395.34;5010160;28;20124;-76
2023/07/27 07:48:27;;;;;;;0.85;0.05;;;;;;;19.48;56.18;100402.34;5010283;28;20048;-78
2023/07/27 07:50:54;;;;;;;0.10;0.00;;;;;;;19.60;55.24;100394.59;5009670;28;20046;-77
2023/07/27 07:53:21;;;;;;;0.65;0.10;;;;;;;19.74;54.56;100402.56;5008819;28;20053;-77
2023/07/27 07:55:48;;;;;;;0.73;0.00;;;;;;;19.85;53.13;100405.38;5009268;28;20526;-77
2023/07/27 07:58:15;;;;;;;0.22;0.00;;;;;;;19.98;52.76;100403.66;5010344;28;20042;-77
2023/07/27 08:00:41;;;;;;;0.73;0.00;;;;;;;20.13;52.56;100411.59;5010026;28;20054;-76
2023/07/27 08:03:08;;;;;;;1.95;0.10;;;;;;;20.24;52.15;100405.59;5010322;28;20701;-77
2023/07/27 08:05:37;;;;;;;0.43;0.10;;;;;;;20.31;50.56;100402.44;5010120;28;20049;-77
2023/07/27 08:08:04;;;;;;;0.60;0.10;;;;;;;20.45;50.62;100404.19;5009324;28;20038;-77
2023/07/27 08:10:31;;;;;;;1.63;0.08;;;;;;;20.58;50.30;100409.59;5009065;28;20077;-78
2023/07/27 08:12:58;;;;;;;1.08;0.10;;;;;;;20.60;50.52;100400.53;5010343;28;20145;-77
2023/07/27 08:15:25;;;;;;;1.90;0.08;;;;;;;20.72;49.25;100409.53;5010570;28;20046;-77
2023/07/27 08:17:52;;;;;;;1.55;0.00;;;;;;;20.77;49.06;100396.78;5010222;28;20057;-78
2023/07/27 08:20:19;;;;;;;0.73;0.10;;;;;;;20.80;49.84;100399.22;5010666;28;20053;-78
2023/07/27 08:22:47;;;;;;;1.85;0.10;;;;;;;20.89;49.06;100397.78;5009838;28;20053;-77
2023/07/27 08:25:15;;;;;;;1.25;0.00;;;;;;;20.96;48.74;100398.19;5010254;28;20064;-77
2023/07/27 08:27:42;;;;;;;0.73;0.08;;;;;;;21.00;48.60;100397.03;5010201;28;20050;-78
2023/07/27 08:30:10;;;;;;;0.40;0.10;;;;;;;21.04;48.42;100390.56;5010956;28;20391;-78
2023/07/27 08:32:37;;;;;;;0.65;0.00;;;;;;;21.07;49.11;100393.84;5010521;28;20595;-78
2023/07/27 08:35:05;;;;;;;0.65;0.32;;;;;;;21.10;48.58;100395.47;5009925;28;20054;-77
2023/07/27 08:37:32;;;;;;;1.75;0.00;;;;;;;21.09;48.19;100383.16;5008831;28;20050;-78
2023/07/27 08:40:01;;;;;;;0.40;0.00;;;;;;;21.16;47.98;100388.88;5010167;28;20046;-77
2023/07/27 08:42:29;;;;;;;0.17;0.00;;;;;;;21.20;48.29;100385.03;5010081;28;20052;-78
2023/07/27 08:44:56;;;;;;;0.10;0.00;;;;;;;21.23;47.94;100391.00;5010118;28;20052;-78
2023/07/27 08:47:23;;;;;;;0.05;0.00;;;;;;;21.26;47.55;100385.47;5009806;28;20053;-79
2023/07/27 08:49:50;;;;;;;0.65;0.00;;;;;;;21.29;47.80;100387.09;5010065;28;20049;-77
2023/07/27 08:52:18;;;;;;;0.52;0.00;;;;;;;21.32;47.66;100393.03;5009826;28;20125;-78
2023/07/27 08:54:46;;;;;;;0.25;0.00;;;;;;;21.34;47.63;100392.91;5010063;28;20081;-77
2023/07/27 08:57:15;;;;;;;0.10;0.00;;;;;;;21.28;47.17;100367.59;5007300;28;20045;-78
2023/07/27 08:59:43;;;;;;;0.43;0.00;;;;;;;21.39;47.66;100388.16;5007579;28;20053;-78
2023/07/27 09:02:10;;;;;;;0.20;0.00;;;;;;;21.42;47.12;100384.44;5010337;28;20046;-78
2023/07/27 09:04:37;;;;;;;0.45;0.00;;;;;;;21.44;47.32;100382.53;5009666;28;20049;-78
2023/07/27 09:07:07;;;;;;;2.95;0.03;;;;;;;21.46;46.75;100389.44;5010343;28;20050;-78
2023/07/27 09:09:35;;;;;;;0.55;0.00;;;;;;;21.48;45.78;100384.00;5008243;28;20115;-77
2023/07/27 09:12:03;;;;;;;0.40;0.00;;;;;;;21.50;45.41;100384.75;5007260;28;20418;-79
2023/07/27 09:14:37;;;;;;;1.35;0.00;;;;;;;21.53;45.76;100388.03;5007245;28;20077;-78
2023/07/27 09:17:04;;;;;;;0.80;0.10;;;;;;;21.53;44.72;100390.69;5010090;28;20507;-78
2023/07/27 09:19:36;;;;;;;1.92;0.00;;;;;;;21.53;44.20;100388.03;5010238;28;20085;-78
2023/07/27 09:22:04;;;;;;;0.80;0.10;;;;;;;21.50;44.31;100390.91;5008657;28;20060;-78
2023/07/27 09:24:33;;;;;;;0.55;0.00;;;;;;;21.54;43.95;100389.75;5009893;28;20049;-78
2023/07/27 09:27:01;;;;;;;0.38;0.00;;;;;;;21.56;43.10;100385.16;5010038;28;20116;-78
2023/07/27 09:29:28;;;;;;;1.25;0.00;;;;;;;21.55;42.52;100393.25;5010005;28;20049;-77
2023/07/27 09:31:58;;;;;;;0.30;0.00;;;;;;;21.54;42.23;100386.22;5009598;28;20056;-77
2023/07/27 09:34:28;;;;;;;0.28;0.00;;;;;;;21.55;43.23;100383.47;5009274;28;20049;-78
2023/07/27 09:36:55;;;;;;;0.45;0.00;;;;;;;21.57;43.99;100383.34;5009508;28;20498;-78
2023/07/27 09:39:24;;;;;;;1.55;0.00;;;;;;;21.56;43.60;100376.34;5010108;28;20046;-78
2023/07/27 09:41:51;;;;;;;1.45;0.00;;;;;;;21.61;43.79;100387.50;5006314;28;20046;-78
2023/07/27 09:44:19;;;;;;;1.05;0.10;;;;;;;21.62;43.83;100386.53;5010339;28;20053;-78
2023/07/27 09:46:47;;;;;;;0.32;0.08;;;;;;;21.65;43.44;100388.97;5009738;28;20137;-79
2023/07/27 09:49:17;;;;;;;0.10;0.00;;;;;;;21.67;44.28;100388.88;5009650;28;20141;-78
2023/07/27 09:51:46;;;;;;;1.48;0.00;;;;;;;21.69;43.86;100389.63;5008268;28;20050;-78
2023/07/27 09:54:13;;;;;;;1.58;0.00;;;;;;;21.72;43.84;100389.41;5008654;28;20053;-78
2023/07/27 09:56:41;;;;;;;0.52;0.10;;;;;;;21.72;44.51;100386.75;5009441;28;20046;-79
2023/07/27 09:59:08;;;;;;;0.80;0.00;;;;;;;21.76;44.41;100382.91;5010126;28;20050;-79
2023/07/27 10:01:35;;;;;;;0.10;0.00;;;;;;;21.79;43.98;100388.00;5009024;28;20050;-78
2023/07/27 10:04:02;;;;;;;0.73;0.08;;;;;;;21.81;44.56;100391.41;5009085;28;20049;-78
2023/07/27 10:06:31;;;;;;;1.13;0.05;;;;;;;21.83;44.05;100383.31;5009085;28;20042;-78
2023/07/27 10:08:58;;;;;;;0.25;0.10;;;;;;;21.83;43.80;100384.19;5007040;28;20054;-78
2023/07/27 10:11:30;;;;;;;1.45;0.20;;;;;;;21.82;43.66;100365.66;5007881;28;20510;-77
2023/07/27 10:13:57;;;;;;;0.20;0.00;;;;;;;21.54;43.26;100335.72;5008403;28;20131;-78
2023/07/27 10:16:28;;;;;;;0.25;0.10;;;;;;;21.84;42.85;100382.34;5009499;28;20054;-77
2023/07/27 10:18:55;;;;;;;0.95;0.10;;;;;;;21.82;42.09;100392.25;5009485;28;20081;-78
2023/07/27 10:21:23;;;;;;;0.32;0.10;;;;;;;21.76;41.94;100382.91;5009289;28;20054;-78
2023/07/27 10:23:56;;;;;;;1.80;0.05;;;;;;;21.74;41.90;100383.03;5006903;28;20060;-78
2023/07/27 10:26:50;;;;;;;0.22;0.10;;;;;;;21.74;42.56;100391.00;5009061;28;20053;-77
2023/07/27 10:29:19;;;;;;;0.65;0.10;;;;;;;21.75;42.64;100381.22;5008345;28;20056;-78
2023/07/27 10:32:00;;;;;;;0.60;0.10;;;;;;;21.73;42.68;100378.66;5012688;28;20477;-78
2023/07/27 10:34:28;;;;;;;0.52;0.10;;;;;;;21.71;42.59;100380.56;5013371;28;20108;-79
2023/07/27 10:36:59;;;;;;;2.13;0.10;;;;;;;21.69;41.96;100385.16;5012890;28;20054;-78
2023/07/27 10:39:32;;;;;;;0.50;0.10;;;;;;;21.66;42.02;100379.19;5012666;28;20069;-78
2023/07/27 10:42:05;;;;;;;0.93;0.30;;;;;;;21.67;42.25;100384.41;5013064;28;20046;-78
2023/07/27 10:44:43;;;;;;;0.40;0.10;;;;;;;21.65;41.70;100378.34;5010239;28;20257;-78
2023/07/27 10:47:11;;;;;;;0.50;0.10;;;;;;;21.62;42.39;100388.34;5013219;28;20478;-79
2023/07/27 10:49:42;;;;;;;3.08;0.20;;;;;;;21.63;42.62;100384.72;5012525;28;20057;-78
2023/07/27 10:52:10;;;;;;;2.45;0.10;;;;;;;21.63;42.85;100385.59;5012750;28;20052;-79
2023/07/27 10:54:40;;;;;;;1.30;0.10;;;;;;;21.61;42.45;100379.53;5012936;28;20611;-78
2023/07/27 10:57:09;;;;;;;1.40;0.10;;;;;;;21.57;42.52;100378.03;5013127;28;20673;-79
2023/07/27 10:59:39;;;;;;;0.47;0.10;;;;;;;21.54;42.07;100375.59;5012709;28;20465;-79
2023/07/27 11:02:10;;;;;;;2.75;0.20;;;;;;;21.44;41.90;100371.91;5012400;28;20050;-78
2023/07/27 11:04:39;;;;;;;3.03;0.20;;;;;;;21.51;42.88;100384.63;5011653;28;20080;-77
2023/07/27 11:07:06;;;;;;;1.17;0.10;;;;;;;21.50;42.97;100382.09;5012539;28;20123;-79
2023/07/27 11:09:33;;;;;;;1.92;0.10;;;;;;;21.50;43.46;100387.41;5012138;28;20045;-78
2023/07/27 11:12:02;;;;;;;3.13;0.20;;;;;;;21.48;42.73;100384.00;5012642;28;20038;-78
2023/07/27 11:14:29;;;;;;;2.75;0.10;;;;;;;21.45;43.71;100392.19;5012486;28;20049;-78
2023/07/27 11:16:56;;;;;;;0.82;0.10;;;;;;;21.44;42.76;100386.03;5012334;28;20054;-79
2023/07/27 11:19:24;;;;;;;1.08;0.20;;;;;;;21.44;42.71;100387.84;5012244;28;20056;-77
2023/07/27 11:21:51;;;;;;;0.70;0.20;;;;;;;21.42;43.25;100379.13;5010514;28;20069;-78
2023/07/27 11:24:20;;;;;;;1.17;0.10;;;;;;;21.40;42.76;100383.69;5011770;28;20042;-79
2023/07/27 11:26:47;;;;;;;0.98;0.10;;;;;;;21.38;42.46;100377.66;5010915;28;20046;-79
2023/07/27 11:29:16;;;;;;;1.33;0.10;;;;;;;21.37;42.27;100370.63;5012172;28;20053;-78